Terminal Aerodrome Forecast
Issued by NWS Duluth, MN

Home | Current Version | Previous Version | Text Only | Print | Product List | Glossary On
Versions: 1 2 3 4 5 6 7 8 9 10 11 12 13 14 15 16 17 18 19 20 21 22 23
481
FTUS43 KDLH 241724
TAFINL
TAF
KINL 241724Z 2418/2518 11012G20KT P6SM BKN100
     FM242200 09012G18KT 4SM -RA BKN012 OVC025
     FM250200 09012KT 2SM -RA BR OVC008
     FM250800 04008KT 2SM -RA BR BKN003 OVC005
     FM251100 01010KT 5SM BR BKN008 OVC020=

USA.gov is the U.S. government's official web portal to all federal, state and local government web resources and services.